sensor_id;sensor_type;location;lat;lon;timestamp;pressure;altitude;pressure_sealevel;temperature;humidity
9935;BME280;5006;41.828;23.478;2023-03-26T00:00:50;89629.41;;;18.59;nan
9935;BME280;5006;41.828;23.478;2023-03-26T00:01:57;89629.28;;;19.17;nan
9935;BME280;5006;41.828;23.478;2023-03-26T00:03:03;89632.13;;;19.04;nan
9935;BME280;5006;41.828;23.478;2023-03-26T00:04:08;89632.28;;;19.01;nan
9935;BME280;5006;41.828;23.478;2023-03-26T00:05:13;89624.13;;;19.28;nan
9935;BME280;5006;41.828;23.478;2023-03-26T00:06:20;89628.97;;;19.42;nan
9935;BME280;5006;41.828;23.478;2023-03-26T00:07:26;89635.56;;;19.59;nan
9935;BME280;5006;41.828;23.478;2023-03-26T00:08:33;89626.25;;;19.06;nan
9935;BME280;5006;41.828;23.478;2023-03-26T00:09:38;89629.41;;;19.90;nan
9935;BME280;5006;41.828;23.478;2023-03-26T00:10:44;89630.19;;;19.23;nan
9935;BME280;5006;41.828;23.478;2023-03-26T00:11:49;89632.91;;;18.78;nan
9935;BME280;5006;41.828;23.478;2023-03-26T00:12:53;89637.06;;;19.69;nan
9935;BME280;5006;41.828;23.478;2023-03-26T00:13:59;89634.59;;;20.30;nan
9935;BME280;5006;41.828;23.478;2023-03-26T00:15:07;89626.56;;;20.82;nan
9935;BME280;5006;41.828;23.478;2023-03-26T00:16:15;89632.41;;;20.10;nan
9935;BME280;5006;41.828;23.478;2023-03-26T00:17:20;89631.06;;;19.56;nan
9935;BME280;5006;41.828;23.478;2023-03-26T00:18:26;89637.59;;;18.20;nan
9935;BME280;5006;41.828;23.478;2023-03-26T00:19:34;89646.44;;;17.72;nan
9935;BME280;5006;41.828;23.478;2023-03-26T00:20:40;89642.75;;;18.27;nan
9935;BME280;5006;41.828;23.478;2023-03-26T00:21:44;89642.97;;;18.11;nan
9935;BME280;5006;41.828;23.478;2023-03-26T00:22:51;89646.78;;;19.34;nan
9935;BME280;5006;41.828;23.478;2023-03-26T00:24:00;89650.88;;;19.20;nan
9935;BME280;5006;41.828;23.478;2023-03-26T00:25:08;89649.38;;;19.37;nan
9935;BME280;5006;41.828;23.478;2023-03-26T00:26:12;89648.44;;;19.49;nan
9935;BME280;5006;41.828;23.478;2023-03-26T00:27:18;89651.91;;;20.41;nan
9935;BME280;5006;41.828;23.478;2023-03-26T00:28:23;89648.50;;;19.81;nan
9935;BME280;5006;41.828;23.478;2023-03-26T00:29:29;89650.59;;;19.86;nan
9935;BME280;5006;41.828;23.478;2023-03-26T00:30:36;89642.72;;;19.38;nan
9935;BME280;5006;41.828;23.478;2023-03-26T00:31:44;89640.56;;;17.22;nan
9935;BME280;5006;41.828;23.478;2023-03-26T00:32:49;89640.75;;;18.85;nan
9935;BME280;5006;41.828;23.478;2023-03-26T00:33:55;89636.44;;;17.90;nan
9935;BME280;5006;41.828;23.478;2023-03-26T00:35:01;89637.97;;;18.00;nan
9935;BME280;5006;41.828;23.478;2023-03-26T00:36:09;89632.53;;;18.31;nan
9935;BME280;5006;41.828;23.478;2023-03-26T00:37:15;89628.38;;;18.17;nan
9935;BME280;5006;41.828;23.478;2023-03-26T00:38:22;89630.25;;;18.29;nan
9935;BME280;5006;41.828;23.478;2023-03-26T00:39:28;89622.75;;;18.96;nan
9935;BME280;5006;41.828;23.478;2023-03-26T00:40:38;89615.06;;;18.41;nan
9935;BME280;5006;41.828;23.478;2023-03-26T00:41:47;89619.75;;;18.58;nan
9935;BME280;5006;41.828;23.478;2023-03-26T00:42:57;89635.28;;;19.12;nan
9935;BME280;5006;41.828;23.478;2023-03-26T00:44:02;89646.06;;;17.82;nan
9935;BME280;5006;41.828;23.478;2023-03-26T00:45:09;89626.44;;;17.78;nan
9935;BME280;5006;41.828;23.478;2023-03-26T00:46:14;89627.56;;;18.56;nan
9935;BME280;5006;41.828;23.478;2023-03-26T00:47:21;89623.47;;;19.60;nan
9935;BME280;5006;41.828;23.478;2023-03-26T00:48:27;89641.16;;;18.08;nan
9935;BME280;5006;41.828;23.478;2023-03-26T00:49:33;89622.81;;;17.81;nan
9935;BME280;5006;41.828;23.478;2023-03-26T00:50:38;89625.38;;;17.76;nan
9935;BME280;5006;41.828;23.478;2023-03-26T00:51:44;89617.75;;;18.32;nan
9935;BME280;5006;41.828;23.478;2023-03-26T00:52:49;89630.00;;;18.06;nan
9935;BME280;5006;41.828;23.478;2023-03-26T00:53:56;89622.03;;;18.96;nan
9935;BME280;5006;41.828;23.478;2023-03-26T00:55:02;89638.50;;;18.26;nan
9935;BME280;5006;41.828;23.478;2023-03-26T00:56:08;89626.84;;;18.56;nan
9935;BME280;5006;41.828;23.478;2023-03-26T00:57:13;89641.91;;;17.69;nan
9935;BME280;5006;41.828;23.478;2023-03-26T00:58:19;89626.22;;;17.94;nan
9935;BME280;5006;41.828;23.478;2023-03-26T00:59:25;89617.31;;;18.42;nan
9935;BME280;5006;41.828;23.478;2023-03-26T01:00:34;89624.63;;;17.75;nan
9935;BME280;5006;41.828;23.478;2023-03-26T01:01:39;89621.00;;;17.69;nan
9935;BME280;5006;41.828;23.478;2023-03-26T01:02:45;89612.56;;;17.46;nan
9935;BME280;5006;41.828;23.478;2023-03-26T01:03:50;89637.38;;;17.66;nan
9935;BME280;5006;41.828;23.478;2023-03-26T01:05:38;89616.72;;;17.99;nan
9935;BME280;5006;41.828;23.478;2023-03-26T01:06:46;89613.69;;;17.88;nan
9935;BME280;5006;41.828;23.478;2023-03-26T01:07:51;89613.63;;;17.79;nan
9935;BME280;5006;41.828;23.478;2023-03-26T01:08:58;89618.53;;;17.62;nan
9935;BME280;5006;41.828;23.478;2023-03-26T01:10:09;89617.69;;;18.23;nan
9935;BME280;5006;41.828;23.478;2023-03-26T01:11:21;89613.03;;;18.23;nan
9935;BME280;5006;41.828;23.478;2023-03-26T01:12:29;89616.50;;;17.45;nan
9935;BME280;5006;41.828;23.478;2023-03-26T01:13:39;89618.81;;;17.95;nan
9935;BME280;5006;41.828;23.478;2023-03-26T01:14:45;89619.56;;;17.56;nan
9935;BME280;5006;41.828;23.478;2023-03-26T01:15:52;89621.84;;;17.97;nan
9935;BME280;5006;41.828;23.478;2023-03-26T01:16:58;89616.44;;;18.06;nan
9935;BME280;5006;41.828;23.478;2023-03-26T01:18:05;89629.34;;;17.53;nan
9935;BME280;5006;41.828;23.478;2023-03-26T01:19:15;89615.69;;;17.14;nan
9935;BME280;5006;41.828;23.478;2023-03-26T01:20:25;89636.25;;;17.54;nan
9935;BME280;5006;41.828;23.478;2023-03-26T01:21:33;89630.06;;;18.24;nan
9935;BME280;5006;41.828;23.478;2023-03-26T01:22:43;89629.19;;;18.27;nan
9935;BME280;5006;41.828;23.478;2023-03-26T01:23:56;89620.84;;;17.21;nan
9935;BME280;5006;41.828;23.478;2023-03-26T01:25:03;89622.88;;;17.08;nan
9935;BME280;5006;41.828;23.478;2023-03-26T01:26:25;89624.41;;;17.61;nan
9935;BME280;5006;41.828;23.478;2023-03-26T01:27:37;89639.56;;;17.49;nan
9935;BME280;5006;41.828;23.478;2023-03-26T01:28:44;89633.91;;;17.65;nan
9935;BME280;5006;41.828;23.478;2023-03-26T01:29:52;89644.41;;;17.33;nan
9935;BME280;5006;41.828;23.478;2023-03-26T01:31:01;89636.59;;;17.35;nan
9935;BME280;5006;41.828;23.478;2023-03-26T01:32:32;89638.22;;;17.54;nan
9935;BME280;5006;41.828;23.478;2023-03-26T01:33:47;89632.69;;;17.36;nan
9935;BME280;5006;41.828;23.478;2023-03-26T01:35:11;89624.50;;;17.79;nan
9935;BME280;5006;41.828;23.478;2023-03-26T01:36:22;89622.97;;;17.05;nan
9935;BME280;5006;41.828;23.478;2023-03-26T01:37:36;89627.84;;;17.10;nan
9935;BME280;5006;41.828;23.478;2023-03-26T01:38:48;89636.09;;;17.06;nan
9935;BME280;5006;41.828;23.478;2023-03-26T01:39:58;89628.25;;;16.99;nan
9935;BME280;5006;41.828;23.478;2023-03-26T01:41:14;89615.38;;;16.69;nan
9935;BME280;5006;41.828;23.478;2023-03-26T01:42:27;89633.66;;;16.99;nan
9935;BME280;5006;41.828;23.478;2023-03-26T01:43:38;89634.97;;;16.73;nan
9935;BME280;5006;41.828;23.478;2023-03-26T01:44:51;89635.59;;;16.99;nan
9935;BME280;5006;41.828;23.478;2023-03-26T01:46:00;89630.50;;;16.45;nan
9935;BME280;5006;41.828;23.478;2023-03-26T01:47:07;89645.16;;;16.69;nan
9935;BME280;5006;41.828;23.478;2023-03-26T01:48:14;89657.69;;;16.97;nan
9935;BME280;5006;41.828;23.478;2023-03-26T01:49:20;89641.56;;;16.26;nan
9935;BME280;5006;41.828;23.478;2023-03-26T01:50:25;89686.06;;;16.71;nan
9935;BME280;5006;41.828;23.478;2023-03-26T01:51:33;89642.31;;;16.73;nan
9935;BME280;5006;41.828;23.478;2023-03-26T01:52:39;89656.28;;;16.71;nan
9935;BME280;5006;41.828;23.478;2023-03-26T01:53:46;89654.31;;;16.50;nan
9935;BME280;5006;41.828;23.478;2023-03-26T01:54:53;89638.72;;;16.54;nan
9935;BME280;5006;41.828;23.478;2023-03-26T01:56:08;89639.38;;;16.46;nan
9935;BME280;5006;41.828;23.478;2023-03-26T01:57:22;89652.66;;;16.53;nan
9935;BME280;5006;41.828;23.478;2023-03-26T01:58:36;89666.56;;;16.42;nan
9935;BME280;5006;41.828;23.478;2023-03-26T01:59:54;89659.22;;;16.98;nan
9935;BME280;5006;41.828;23.478;2023-03-26T02:01:24;89667.69;;;17.00;nan
9935;BME280;5006;41.828;23.478;2023-03-26T02:02:36;89679.47;;;16.72;nan
9935;BME280;5006;41.828;23.478;2023-03-26T02:03:51;89666.75;;;16.60;nan
9935;BME280;5006;41.828;23.478;2023-03-26T02:05:04;89676.13;;;16.68;nan
9935;BME280;5006;41.828;23.478;2023-03-26T02:06:15;89670.16;;;16.73;nan
9935;BME280;5006;41.828;23.478;2023-03-26T02:07:27;89676.22;;;16.99;nan
9935;BME280;5006;41.828;23.478;2023-03-26T02:08:39;89671.09;;;16.45;nan
9935;BME280;5006;41.828;23.478;2023-03-26T02:09:48;89677.34;;;16.89;nan
9935;BME280;5006;41.828;23.478;2023-03-26T02:10:57;89683.38;;;16.71;nan
9935;BME280;5006;41.828;23.478;2023-03-26T02:12:05;89665.56;;;16.49;nan
9935;BME280;5006;41.828;23.478;2023-03-26T02:13:11;89673.91;;;16.88;nan
9935;BME280;5006;41.828;23.478;2023-03-26T02:14:17;89681.19;;;16.45;nan
9935;BME280;5006;41.828;23.478;2023-03-26T02:15:23;89689.16;;;16.61;nan
9935;BME280;5006;41.828;23.478;2023-03-26T02:16:29;89671.19;;;16.54;nan
9935;BME280;5006;41.828;23.478;2023-03-26T02:17:35;89679.38;;;16.97;nan
9935;BME280;5006;41.828;23.478;2023-03-26T02:18:44;89683.34;;;17.05;nan
9935;BME280;5006;41.828;23.478;2023-03-26T02:19:50;89663.69;;;17.14;nan
9935;BME280;5006;41.828;23.478;2023-03-26T02:20:55;89682.41;;;16.99;nan
9935;BME280;5006;41.828;23.478;2023-03-26T02:22:00;89667.66;;;17.64;nan
9935;BME280;5006;41.828;23.478;2023-03-26T02:23:07;89678.91;;;16.43;nan
9935;BME280;5006;41.828;23.478;2023-03-26T02:24:14;89663.88;;;16.98;nan
9935;BME280;5006;41.828;23.478;2023-03-26T02:25:19;89677.56;;;16.60;nan
9935;BME280;5006;41.828;23.478;2023-03-26T02:26:27;89663.13;;;16.97;nan
9935;BME280;5006;41.828;23.478;2023-03-26T02:27:51;89682.59;;;16.37;nan
9935;BME280;5006;41.828;23.478;2023-03-26T02:28:58;89661.97;;;17.71;nan
9935;BME280;5006;41.828;23.478;2023-03-26T02:30:03;89658.25;;;17.78;nan
9935;BME280;5006;41.828;23.478;2023-03-26T02:31:09;89689.25;;;17.25;nan
9935;BME280;5006;41.828;23.478;2023-03-26T02:32:17;89677.22;;;16.71;nan
9935;BME280;5006;41.828;23.478;2023-03-26T02:33:23;89663.66;;;17.26;nan
9935;BME280;5006;41.828;23.478;2023-03-26T02:34:28;89670.88;;;16.86;nan
9935;BME280;5006;41.828;23.478;2023-03-26T02:35:34;89667.28;;;16.89;nan
9935;BME280;5006;41.828;23.478;2023-03-26T02:36:40;89667.69;;;17.22;nan
9935;BME280;5006;41.828;23.478;2023-03-26T02:37:47;89653.97;;;16.82;nan
9935;BME280;5006;41.828;23.478;2023-03-26T02:38:56;89676.59;;;16.67;nan
9935;BME280;5006;41.828;23.478;2023-03-26T02:40:06;89670.88;;;17.08;nan
9935;BME280;5006;41.828;23.478;2023-03-26T02:41:14;89663.00;;;17.01;nan
9935;BME280;5006;41.828;23.478;2023-03-26T02:42:34;89647.00;;;16.94;nan
9935;BME280;5006;41.828;23.478;2023-03-26T02:43:40;89660.06;;;17.08;nan
9935;BME280;5006;41.828;23.478;2023-03-26T02:44:50;89662.97;;;17.35;nan
9935;BME280;5006;41.828;23.478;2023-03-26T02:46:17;89662.59;;;16.90;nan
9935;BME280;5006;41.828;23.478;2023-03-26T02:47:38;89665.78;;;16.88;nan
9935;BME280;5006;41.828;23.478;2023-03-26T02:49:02;89680.25;;;16.94;nan
9935;BME280;5006;41.828;23.478;2023-03-26T02:50:08;89674.72;;;17.19;nan
9935;BME280;5006;41.828;23.478;2023-03-26T02:51:33;89670.97;;;17.38;nan
9935;BME280;5006;41.828;23.478;2023-03-26T02:52:51;89665.78;;;17.83;nan
9935;BME280;5006;41.828;23.478;2023-03-26T02:53:57;89664.69;;;17.07;nan
9935;BME280;5006;41.828;23.478;2023-03-26T02:55:26;89663.59;;;17.39;nan
9935;BME280;5006;41.828;23.478;2023-03-26T02:56:36;89663.66;;;17.26;nan
9935;BME280;5006;41.828;23.478;2023-03-26T02:58:01;89665.91;;;17.28;nan
9935;BME280;5006;41.828;23.478;2023-03-26T02:59:14;89672.91;;;16.61;nan
9935;BME280;5006;41.828;23.478;2023-03-26T03:00:21;89671.19;;;16.88;nan
9935;BME280;5006;41.828;23.478;2023-03-26T03:02:05;89663.13;;;16.97;nan
9935;BME280;5006;41.828;23.478;2023-03-26T03:03:12;89656.66;;;17.38;nan
9935;BME280;5006;41.828;23.478;2023-03-26T03:04:36;89660.75;;;16.65;nan
9935;BME280;5006;41.828;23.478;2023-03-26T03:05:42;89669.22;;;17.10;nan
9935;BME280;5006;41.828;23.478;2023-03-26T03:07:05;89665.31;;;17.11;nan
9935;BME280;5006;41.828;23.478;2023-03-26T03:08:11;89670.78;;;16.77;nan
9935;BME280;5006;41.828;23.478;2023-03-26T03:09:24;89655.66;;;16.67;nan
9935;BME280;5006;41.828;23.478;2023-03-26T03:10:55;89665.59;;;16.24;nan
9935;BME280;5006;41.828;23.478;2023-03-26T03:12:09;89664.06;;;16.48;nan
9935;BME280;5006;41.828;23.478;2023-03-26T03:13:15;89658.56;;;16.73;nan
9935;BME280;5006;41.828;23.478;2023-03-26T03:14:21;89658.63;;;16.60;nan
9935;BME280;5006;41.828;23.478;2023-03-26T03:15:28;89661.34;;;16.82;nan
9935;BME280;5006;41.828;23.478;2023-03-26T03:16:32;89670.50;;;16.63;nan
9935;BME280;5006;41.828;23.478;2023-03-26T03:17:43;89668.50;;;16.76;nan
9935;BME280;5006;41.828;23.478;2023-03-26T03:18:47;89662.66;;;16.43;nan
9935;BME280;5006;41.828;23.478;2023-03-26T03:19:58;89669.38;;;16.14;nan
9935;BME280;5006;41.828;23.478;2023-03-26T03:21:04;89670.28;;;17.77;nan
9935;BME280;5006;41.828;23.478;2023-03-26T03:22:10;89673.66;;;16.61;nan
9935;BME280;5006;41.828;23.478;2023-03-26T03:23:15;89671.31;;;17.06;nan
9935;BME280;5006;41.828;23.478;2023-03-26T03:24:20;89669.81;;;17.05;nan
9935;BME280;5006;41.828;23.478;2023-03-26T03:25:26;89679.69;;;15.94;nan
9935;BME280;5006;41.828;23.478;2023-03-26T03:26:31;89672.16;;;16.60;nan
9935;BME280;5006;41.828;23.478;2023-03-26T03:27:48;89673.59;;;16.52;nan
9935;BME280;5006;41.828;23.478;2023-03-26T03:28:56;89670.16;;;16.14;nan
9935;BME280;5006;41.828;23.478;2023-03-26T03:30:03;89671.00;;;16.24;nan
9935;BME280;5006;41.828;23.478;2023-03-26T03:31:44;89677.97;;;15.87;nan
9935;BME280;5006;41.828;23.478;2023-03-26T03:33:04;89661.75;;;15.62;nan
9935;BME280;5006;41.828;23.478;2023-03-26T03:34:09;89682.09;;;15.92;nan
9935;BME280;5006;41.828;23.478;2023-03-26T03:35:21;89726.28;;;15.60;nan
9935;BME280;5006;41.828;23.478;2023-03-26T03:36:31;89691.66;;;16.30;nan
9935;BME280;5006;41.828;23.478;2023-03-26T03:37:47;89681.09;;;15.48;nan
9935;BME280;5006;41.828;23.478;2023-03-26T03:38:51;89688.13;;;15.58;nan
9935;BME280;5006;41.828;23.478;2023-03-26T03:39:59;89686.06;;;15.75;nan
9935;BME280;5006;41.828;23.478;2023-03-26T03:41:07;89680.22;;;15.51;nan
9935;BME280;5006;41.828;23.478;2023-03-26T03:42:16;89678.94;;;15.15;nan
9935;BME280;5006;41.828;23.478;2023-03-26T03:43:21;89678.72;;;15.63;nan
9935;BME280;5006;41.828;23.478;2023-03-26T03:44:40;89687.94;;;15.24;nan
9935;BME280;5006;41.828;23.478;2023-03-26T03:45:57;89673.31;;;15.75;nan
9935;BME280;5006;41.828;23.478;2023-03-26T03:47:13;89690.94;;;15.67;nan
9935;BME280;5006;41.828;23.478;2023-03-26T03:48:19;89683.41;;;15.21;nan
9935;BME280;5006;41.828;23.478;2023-03-26T03:49:25;89681.00;;;15.89;nan
9935;BME280;5006;41.828;23.478;2023-03-26T03:50:30;89691.69;;;15.55;nan
9935;BME280;5006;41.828;23.478;2023-03-26T03:51:56;89692.22;;;15.88;nan
9935;BME280;5006;41.828;23.478;2023-03-26T03:53:08;89690.78;;;16.33;nan
9935;BME280;5006;41.828;23.478;2023-03-26T03:54:20;89684.94;;;16.94;nan
9935;BME280;5006;41.828;23.478;2023-03-26T03:55:46;89691.81;;;15.89;nan
9935;BME280;5006;41.828;23.478;2023-03-26T03:56:57;89697.34;;;15.98;nan
9935;BME280;5006;41.828;23.478;2023-03-26T03:58:11;89688.19;;;16.89;nan
9935;BME280;5006;41.828;23.478;2023-03-26T03:59:18;89695.97;;;16.65;nan
9935;BME280;5006;41.828;23.478;2023-03-26T04:00:24;89679.13;;;17.38;nan
9935;BME280;5006;41.828;23.478;2023-03-26T04:01:50;89693.59;;;16.89;nan
9935;BME280;5006;41.828;23.478;2023-03-26T04:03:07;89693.09;;;15.60;nan
9935;BME280;5006;41.828;23.478;2023-03-26T04:04:13;89690.84;;;15.96;nan
9935;BME280;5006;41.828;23.478;2023-03-26T04:05:47;89687.59;;;15.76;nan
9935;BME280;5006;41.828;23.478;2023-03-26T04:07:00;89696.44;;;15.89;nan
9935;BME280;5006;41.828;23.478;2023-03-26T04:08:14;89693.97;;;15.82;nan
9935;BME280;5006;41.828;23.478;2023-03-26T04:09:24;89705.66;;;15.91;nan
9935;BME280;5006;41.828;23.478;2023-03-26T04:10:32;89671.69;;;15.65;nan
9935;BME280;5006;41.828;23.478;2023-03-26T04:12:06;89689.00;;;15.68;nan
9935;BME280;5006;41.828;23.478;2023-03-26T04:13:32;89691.47;;;15.75;nan
9935;BME280;5006;41.828;23.478;2023-03-26T04:14:51;89685.22;;;15.65;nan
9935;BME280;5006;41.828;23.478;2023-03-26T04:15:58;89663.69;;;15.49;nan
9935;BME280;5006;41.828;23.478;2023-03-26T04:17:05;89683.25;;;16.03;nan
9935;BME280;5006;41.828;23.478;2023-03-26T04:18:15;89713.06;;;15.50;nan
9935;BME280;5006;41.828;23.478;2023-03-26T04:19:22;89663.25;;;17.15;nan
9935;BME280;5006;41.828;23.478;2023-03-26T04:20:28;89667.81;;;17.40;nan
9935;BME280;5006;41.828;23.478;2023-03-26T04:21:32;89715.38;;;16.85;nan
9935;BME280;5006;41.828;23.478;2023-03-26T04:22:42;89697.06;;;16.89;nan
9935;BME280;5006;41.828;23.478;2023-03-26T04:23:48;89683.13;;;16.78;nan
9935;BME280;5006;41.828;23.478;2023-03-26T04:25:17;89682.75;;;16.89;nan
9935;BME280;5006;41.828;23.478;2023-03-26T04:26:25;89680.16;;;16.85;nan
9935;BME280;5006;41.828;23.478;2023-03-26T04:27:45;89691.16;;;16.10;nan
9935;BME280;5006;41.828;23.478;2023-03-26T04:29:03;89675.63;;;17.16;nan
9935;BME280;5006;41.828;23.478;2023-03-26T04:30:17;89692.00;;;16.79;nan
9935;BME280;5006;41.828;23.478;2023-03-26T04:31:27;89691.19;;;16.69;nan
9935;BME280;5006;41.828;23.478;2023-03-26T04:32:35;89710.81;;;16.95;nan
9935;BME280;5006;41.828;23.478;2023-03-26T04:33:44;89697.53;;;15.54;nan
9935;BME280;5006;41.828;23.478;2023-03-26T04:34:53;89698.63;;;16.06;nan
9935;BME280;5006;41.828;23.478;2023-03-26T04:36:01;89693.22;;;15.69;nan
9935;BME280;5006;41.828;23.478;2023-03-26T04:37:13;89687.69;;;15.47;nan
9935;BME280;5006;41.828;23.478;2023-03-26T04:38:30;89695.03;;;15.47;nan
9935;BME280;5006;41.828;23.478;2023-03-26T04:39:40;89696.56;;;15.60;nan
9935;BME280;5006;41.828;23.478;2023-03-26T04:41:05;89694.47;;;17.93;nan
9935;BME280;5006;41.828;23.478;2023-03-26T04:42:21;89696.63;;;15.44;nan
9935;BME280;5006;41.828;23.478;2023-03-26T04:43:38;89702.25;;;15.37;nan
9935;BME280;5006;41.828;23.478;2023-03-26T04:44:55;89697.63;;;15.50;nan
9935;BME280;5006;41.828;23.478;2023-03-26T04:46:04;89704.44;;;15.55;nan
9935;BME280;5006;41.828;23.478;2023-03-26T04:47:17;89719.94;;;15.92;nan
9935;BME280;5006;41.828;23.478;2023-03-26T04:48:25;89715.50;;;15.85;nan
9935;BME280;5006;41.828;23.478;2023-03-26T04:49:31;89718.75;;;15.68;nan
9935;BME280;5006;41.828;23.478;2023-03-26T04:50:36;89710.81;;;15.08;nan
9935;BME280;5006;41.828;23.478;2023-03-26T04:51:42;89716.56;;;16.50;nan
9935;BME280;5006;41.828;23.478;2023-03-26T04:53:14;89713.44;;;15.64;nan
9935;BME280;5006;41.828;23.478;2023-03-26T04:54:46;89728.63;;;15.33;nan
9935;BME280;5006;41.828;23.478;2023-03-26T04:55:57;89713.78;;;15.79;nan
9935;BME280;5006;41.828;23.478;2023-03-26T04:57:28;89728.16;;;15.88;nan
9935;BME280;5006;41.828;23.478;2023-03-26T04:58:43;89716.06;;;15.93;nan
9935;BME280;5006;41.828;23.478;2023-03-26T04:59:48;89731.78;;;15.57;nan
9935;BME280;5006;41.828;23.478;2023-03-26T05:00:54;89733.53;;;15.22;nan
9935;BME280;5006;41.828;23.478;2023-03-26T05:02:01;89726.06;;;15.55;nan
9935;BME280;5006;41.828;23.478;2023-03-26T05:03:13;89737.44;;;16.96;nan
9935;BME280;5006;41.828;23.478;2023-03-26T05:04:19;89731.25;;;14.93;nan
9935;BME280;5006;41.828;23.478;2023-03-26T05:05:25;89724.28;;;17.20;nan
9935;BME280;5006;41.828;23.478;2023-03-26T05:06:31;89731.19;;;15.78;nan
9935;BME280;5006;41.828;23.478;2023-03-26T05:07:42;89753.03;;;16.21;nan
9935;BME280;5006;41.828;23.478;2023-03-26T05:08:48;89742.38;;;17.44;nan
9935;BME280;5006;41.828;23.478;2023-03-26T05:10:12;89740.47;;;16.64;nan
9935;BME280;5006;41.828;23.478;2023-03-26T05:11:24;89743.44;;;16.79;nan
9935;BME280;5006;41.828;23.478;2023-03-26T05:12:30;89750.56;;;16.01;nan
9935;BME280;5006;41.828;23.478;2023-03-26T05:13:40;89743.75;;;16.93;nan
9935;BME280;5006;41.828;23.478;2023-03-26T05:14:49;89754.69;;;16.90;nan
9935;BME280;5006;41.828;23.478;2023-03-26T05:16:01;89771.03;;;16.99;nan
9935;BME280;5006;41.828;23.478;2023-03-26T05:17:30;89746.72;;;17.42;nan
9935;BME280;5006;41.828;23.478;2023-03-26T05:18:38;89771.66;;;16.31;nan
9935;BME280;5006;41.828;23.478;2023-03-26T05:19:45;89791.72;;;15.68;nan
9935;BME280;5006;41.828;23.478;2023-03-26T05:20:51;89761.75;;;15.62;nan
9935;BME280;5006;41.828;23.478;2023-03-26T05:21:57;89751.28;;;16.02;nan
9935;BME280;5006;41.828;23.478;2023-03-26T05:23:02;89757.13;;;15.88;nan
9935;BME280;5006;41.828;23.478;2023-03-26T05:24:13;89769.59;;;16.10;nan
9935;BME280;5006;41.828;23.478;2023-03-26T05:25:18;89757.59;;;17.08;nan
9935;BME280;5006;41.828;23.478;2023-03-26T05:26:24;89745.69;;;16.46;nan
9935;BME280;5006;41.828;23.478;2023-03-26T05:27:29;89762.81;;;15.52;nan
9935;BME280;5006;41.828;23.478;2023-03-26T05:28:35;89753.78;;;16.21;nan
9935;BME280;5006;41.828;23.478;2023-03-26T05:29:48;89756.84;;;16.48;nan
9935;BME280;5006;41.828;23.478;2023-03-26T05:30:54;89754.69;;;16.43;nan
9935;BME280;5006;41.828;23.478;2023-03-26T05:32:02;89757.25;;;15.84;nan
9935;BME280;5006;41.828;23.478;2023-03-26T05:33:07;89754.13;;;16.11;nan
9935;BME280;5006;41.828;23.478;2023-03-26T05:34:25;89748.44;;;16.80;nan
9935;BME280;5006;41.828;23.478;2023-03-26T05:35:32;89750.75;;;15.94;nan
9935;BME280;5006;41.828;23.478;2023-03-26T05:36:37;89737.09;;;15.73;nan
9935;BME280;5006;41.828;23.478;2023-03-26T05:38:21;89748.88;;;17.13;nan
9935;BME280;5006;41.828;23.478;2023-03-26T05:39:27;89737.44;;;16.96;nan
9935;BME280;5006;41.828;23.478;2023-03-26T05:40:38;89754.97;;;16.70;nan
9935;BME280;5006;41.828;23.478;2023-03-26T05:41:45;89743.09;;;16.18;nan
9935;BME280;5006;41.828;23.478;2023-03-26T05:42:50;89749.59;;;17.38;nan
9935;BME280;5006;41.828;23.478;2023-03-26T05:44:11;89758.19;;;16.78;nan
9935;BME280;5006;41.828;23.478;2023-03-26T05:45:18;89781.78;;;16.90;nan
9935;BME280;5006;41.828;23.478;2023-03-26T05:46:26;89750.88;;;16.53;nan
9935;BME280;5006;41.828;23.478;2023-03-26T05:47:31;89765.25;;;15.18;nan
9935;BME280;5006;41.828;23.478;2023-03-26T05:48:37;89776.56;;;17.08;nan
9935;BME280;5006;41.828;23.478;2023-03-26T05:49:44;89772.31;;;16.60;nan
9935;BME280;5006;41.828;23.478;2023-03-26T05:50:53;89763.38;;;17.74;nan
9935;BME280;5006;41.828;23.478;2023-03-26T05:51:59;89774.03;;;17.13;nan
9935;BME280;5006;41.828;23.478;2023-03-26T05:53:23;89788.53;;;16.73;nan
9935;BME280;5006;41.828;23.478;2023-03-26T05:54:47;89773.75;;;17.33;nan
9935;BME280;5006;41.828;23.478;2023-03-26T05:56:19;89787.59;;;16.42;nan
9935;BME280;5006;41.828;23.478;2023-03-26T05:57:40;89777.81;;;16.69;nan
9935;BME280;5006;41.828;23.478;2023-03-26T05:59:04;89757.13;;;16.63;nan
9935;BME280;5006;41.828;23.478;2023-03-26T06:00:29;89778.25;;;17.14;nan
9935;BME280;5006;41.828;23.478;2023-03-26T06:01:34;89775.63;;;16.89;nan
9935;BME280;5006;41.828;23.478;2023-03-26T06:02:49;89764.97;;;17.41;nan
9935;BME280;5006;41.828;23.478;2023-03-26T06:04:00;89776.50;;;17.54;nan
9935;BME280;5006;41.828;23.478;2023-03-26T06:05:09;89764.75;;;17.02;nan
9935;BME280;5006;41.828;23.478;2023-03-26T06:06:42;89753.47;;;16.19;nan
9935;BME280;5006;41.828;23.478;2023-03-26T06:07:49;89790.84;;;14.86;nan
9935;BME280;5006;41.828;23.478;2023-03-26T06:08:57;89775.84;;;16.82;nan
9935;BME280;5006;41.828;23.478;2023-03-26T06:10:02;89789.41;;;16.57;nan
9935;BME280;5006;41.828;23.478;2023-03-26T06:11:09;89765.78;;;16.70;nan
9935;BME280;5006;41.828;23.478;2023-03-26T06:12:16;89795.78;;;16.76;nan
9935;BME280;5006;41.828;23.478;2023-03-26T06:13:22;89789.94;;;16.77;nan
9935;BME280;5006;41.828;23.478;2023-03-26T06:14:28;89755.84;;;15.80;nan
9935;BME280;5006;41.828;23.478;2023-03-26T06:15:56;89783.31;;;15.78;nan
9935;BME280;5006;41.828;23.478;2023-03-26T06:17:14;89785.25;;;15.37;nan
9935;BME280;5006;41.828;23.478;2023-03-26T06:18:38;89766.63;;;15.67;nan
9935;BME280;5006;41.828;23.478;2023-03-26T06:20:08;89782.19;;;16.42;nan
9935;BME280;5006;41.828;23.478;2023-03-26T06:21:19;89791.41;;;15.66;nan
9935;BME280;5006;41.828;23.478;2023-03-26T06:22:30;89802.56;;;17.94;nan
9935;BME280;5006;41.828;23.478;2023-03-26T06:24:08;89785.09;;;17.95;nan
9935;BME280;5006;41.828;23.478;2023-03-26T06:25:27;89795.69;;;17.81;nan
9935;BME280;5006;41.828;23.478;2023-03-26T06:26:45;89793.28;;;18.65;nan
9935;BME280;5006;41.828;23.478;2023-03-26T06:27:57;89847.53;;;17.49;nan
9935;BME280;5006;41.828;23.478;2023-03-26T06:29:21;89792.63;;;18.92;nan
9935;BME280;5006;41.828;23.478;2023-03-26T06:30:33;89791.97;;;18.79;nan
9935;BME280;5006;41.828;23.478;2023-03-26T06:31:44;89807.91;;;18.07;nan
9935;BME280;5006;41.828;23.478;2023-03-26T06:32:54;89803.50;;;19.01;nan